sensor_id;sensor_type;location;lat;lon;timestamp;P1;durP1;ratioP1;P2;durP2;ratioP2
42196;SDS011;27866;48.146;17.098;2023-03-18T00:00:05;12.90;;;6.32;;
42196;SDS011;27866;48.146;17.098;2023-03-18T00:04:20;15.95;;;6.90;;
42196;SDS011;27866;48.146;17.098;2023-03-18T00:08:33;15.52;;;6.65;;
42196;SDS011;27866;48.146;17.098;2023-03-18T00:12:45;13.50;;;6.45;;
42196;SDS011;27866;48.146;17.098;2023-03-18T00:16:56;17.27;;;6.47;;
42196;SDS011;27866;48.146;17.098;2023-03-18T00:21:08;15.55;;;7.03;;
42196;SDS011;27866;48.146;17.098;2023-03-18T00:25:20;17.45;;;6.97;;
42196;SDS011;27866;48.146;17.098;2023-03-18T00:29:31;14.50;;;6.68;;
42196;SDS011;27866;48.146;17.098;2023-03-18T00:33:43;17.10;;;7.40;;
42196;SDS011;27866;48.146;17.098;2023-03-18T00:37:57;12.38;;;7.00;;
42196;SDS011;27866;48.146;17.098;2023-03-18T00:42:09;13.68;;;6.93;;
42196;SDS011;27866;48.146;17.098;2023-03-18T00:46:25;13.25;;;6.53;;
42196;SDS011;27866;48.146;17.098;2023-03-18T00:50:40;15.82;;;7.25;;
42196;SDS011;27866;48.146;17.098;2023-03-18T00:54:52;13.32;;;6.13;;
42196;SDS011;27866;48.146;17.098;2023-03-18T00:59:04;17.27;;;7.07;;
42196;SDS011;27866;48.146;17.098;2023-03-18T01:03:16;17.48;;;6.65;;
42196;SDS011;27866;48.146;17.098;2023-03-18T01:07:28;13.68;;;7.03;;
42196;SDS011;27866;48.146;17.098;2023-03-18T01:11:39;15.07;;;7.45;;
42196;SDS011;27866;48.146;17.098;2023-03-18T01:15:50;15.48;;;7.15;;
42196;SDS011;27866;48.146;17.098;2023-03-18T01:20:02;12.73;;;6.50;;
42196;SDS011;27866;48.146;17.098;2023-03-18T01:24:14;13.15;;;6.82;;
42196;SDS011;27866;48.146;17.098;2023-03-18T01:28:26;12.88;;;6.85;;
42196;SDS011;27866;48.146;17.098;2023-03-18T01:32:38;11.82;;;6.43;;
42196;SDS011;27866;48.146;17.098;2023-03-18T01:36:49;14.60;;;6.90;;
42196;SDS011;27866;48.146;17.098;2023-03-18T01:41:04;12.75;;;6.57;;
42196;SDS011;27866;48.146;17.098;2023-03-18T01:45:21;16.17;;;6.28;;
42196;SDS011;27866;48.146;17.098;2023-03-18T01:49:39;14.02;;;6.95;;
42196;SDS011;27866;48.146;17.098;2023-03-18T01:53:58;14.32;;;5.85;;
42196;SDS011;27866;48.146;17.098;2023-03-18T01:58:20;14.85;;;6.93;;
42196;SDS011;27866;48.146;17.098;2023-03-18T02:02:38;13.38;;;6.78;;
42196;SDS011;27866;48.146;17.098;2023-03-18T02:06:52;13.25;;;7.05;;
42196;SDS011;27866;48.146;17.098;2023-03-18T02:11:03;17.35;;;6.90;;
42196;SDS011;27866;48.146;17.098;2023-03-18T02:15:18;12.15;;;6.60;;
42196;SDS011;27866;48.146;17.098;2023-03-18T02:19:37;15.15;;;6.53;;
42196;SDS011;27866;48.146;17.098;2023-03-18T02:28:36;12.95;;;7.00;;
42196;SDS011;27866;48.146;17.098;2023-03-18T02:32:49;13.77;;;7.07;;
42196;SDS011;27866;48.146;17.098;2023-03-18T02:37:02;13.45;;;6.93;;
42196;SDS011;27866;48.146;17.098;2023-03-18T02:41:14;13.50;;;6.82;;
42196;SDS011;27866;48.146;17.098;2023-03-18T02:45:37;15.77;;;7.18;;
42196;SDS011;27866;48.146;17.098;2023-03-18T02:50:00;18.25;;;7.55;;
42196;SDS011;27866;48.146;17.098;2023-03-18T02:54:14;13.73;;;7.38;;
42196;SDS011;27866;48.146;17.098;2023-03-18T02:58:30;18.88;;;7.35;;
42196;SDS011;27866;48.146;17.098;2023-03-18T03:02:44;18.27;;;7.18;;
42196;SDS011;27866;48.146;17.098;2023-03-18T03:06:55;12.65;;;6.72;;
42196;SDS011;27866;48.146;17.098;2023-03-18T03:11:28;16.45;;;7.45;;
42196;SDS011;27866;48.146;17.098;2023-03-18T03:15:47;14.23;;;6.78;;
42196;SDS011;27866;48.146;17.098;2023-03-18T03:19:59;13.77;;;7.13;;
42196;SDS011;27866;48.146;17.098;2023-03-18T03:24:11;10.07;;;6.60;;
42196;SDS011;27866;48.146;17.098;2023-03-18T03:28:23;16.25;;;7.25;;
42196;SDS011;27866;48.146;17.098;2023-03-18T03:32:36;13.45;;;7.18;;
42196;SDS011;27866;48.146;17.098;2023-03-18T03:36:49;14.23;;;7.35;;
42196;SDS011;27866;48.146;17.098;2023-03-18T03:41:00;15.80;;;7.15;;
42196;SDS011;27866;48.146;17.098;2023-03-18T03:45:12;14.73;;;6.75;;
42196;SDS011;27866;48.146;17.098;2023-03-18T03:49:26;20.08;;;7.20;;
42196;SDS011;27866;48.146;17.098;2023-03-18T03:53:38;14.55;;;6.85;;
42196;SDS011;27866;48.146;17.098;2023-03-18T03:57:50;15.35;;;7.53;;
42196;SDS011;27866;48.146;17.098;2023-03-18T04:02:02;13.48;;;7.00;;
42196;SDS011;27866;48.146;17.098;2023-03-18T04:06:13;15.10;;;7.60;;
42196;SDS011;27866;48.146;17.098;2023-03-18T04:10:33;16.35;;;7.88;;
42196;SDS011;27866;48.146;17.098;2023-03-18T04:14:47;16.33;;;7.43;;
42196;SDS011;27866;48.146;17.098;2023-03-18T04:18:59;14.10;;;7.30;;
42196;SDS011;27866;48.146;17.098;2023-03-18T04:23:10;16.30;;;6.75;;
42196;SDS011;27866;48.146;17.098;2023-03-18T04:27:22;15.23;;;8.45;;
42196;SDS011;27866;48.146;17.098;2023-03-18T04:31:34;14.73;;;7.80;;
42196;SDS011;27866;48.146;17.098;2023-03-18T04:35:46;15.95;;;6.95;;
42196;SDS011;27866;48.146;17.098;2023-03-18T04:39:59;14.73;;;8.18;;
42196;SDS011;27866;48.146;17.098;2023-03-18T04:44:11;15.55;;;7.65;;
42196;SDS011;27866;48.146;17.098;2023-03-18T04:48:29;14.50;;;7.13;;
42196;SDS011;27866;48.146;17.098;2023-03-18T04:52:42;16.40;;;7.03;;
42196;SDS011;27866;48.146;17.098;2023-03-18T04:56:58;15.77;;;7.30;;
42196;SDS011;27866;48.146;17.098;2023-03-18T05:01:11;15.35;;;7.18;;
42196;SDS011;27866;48.146;17.098;2023-03-18T05:05:23;13.30;;;7.25;;
42196;SDS011;27866;48.146;17.098;2023-03-18T05:09:36;16.42;;;7.50;;
42196;SDS011;27866;48.146;17.098;2023-03-18T05:13:50;16.13;;;7.47;;
42196;SDS011;27866;48.146;17.098;2023-03-18T05:18:03;12.53;;;7.33;;
42196;SDS011;27866;48.146;17.098;2023-03-18T05:22:16;18.02;;;7.47;;
42196;SDS011;27866;48.146;17.098;2023-03-18T05:26:32;15.20;;;7.60;;
42196;SDS011;27866;48.146;17.098;2023-03-18T05:30:43;16.83;;;7.82;;
42196;SDS011;27866;48.146;17.098;2023-03-18T05:34:58;16.58;;;8.00;;
42196;SDS011;27866;48.146;17.098;2023-03-18T05:39:11;15.40;;;7.38;;
42196;SDS011;27866;48.146;17.098;2023-03-18T05:43:22;15.38;;;7.28;;
42196;SDS011;27866;48.146;17.098;2023-03-18T05:47:38;10.35;;;7.18;;
42196;SDS011;27866;48.146;17.098;2023-03-18T05:51:53;16.40;;;7.80;;
42196;SDS011;27866;48.146;17.098;2023-03-18T05:56:16;14.07;;;7.13;;
42196;SDS011;27866;48.146;17.098;2023-03-18T06:00:32;13.60;;;6.93;;
42196;SDS011;27866;48.146;17.098;2023-03-18T06:04:45;11.93;;;7.13;;
42196;SDS011;27866;48.146;17.098;2023-03-18T06:08:57;15.18;;;6.85;;
42196;SDS011;27866;48.146;17.098;2023-03-18T06:13:11;14.90;;;6.50;;
42196;SDS011;27866;48.146;17.098;2023-03-18T06:17:22;16.92;;;6.97;;
42196;SDS011;27866;48.146;17.098;2023-03-18T06:21:33;11.60;;;6.60;;
42196;SDS011;27866;48.146;17.098;2023-03-18T06:25:47;14.77;;;6.70;;
42196;SDS011;27866;48.146;17.098;2023-03-18T06:30:01;12.73;;;7.38;;
42196;SDS011;27866;48.146;17.098;2023-03-18T06:34:15;14.80;;;6.93;;
42196;SDS011;27866;48.146;17.098;2023-03-18T06:38:27;13.18;;;6.63;;
42196;SDS011;27866;48.146;17.098;2023-03-18T06:42:40;10.52;;;6.07;;
42196;SDS011;27866;48.146;17.098;2023-03-18T06:46:56;14.15;;;6.25;;
42196;SDS011;27866;48.146;17.098;2023-03-18T06:51:08;11.85;;;6.18;;
42196;SDS011;27866;48.146;17.098;2023-03-18T06:55:24;11.27;;;6.53;;
42196;SDS011;27866;48.146;17.098;2023-03-18T06:59:37;10.85;;;6.35;;
42196;SDS011;27866;48.146;17.098;2023-03-18T07:03:49;12.10;;;6.65;;
42196;SDS011;27866;48.146;17.098;2023-03-18T07:08:01;12.27;;;6.30;;
42196;SDS011;27866;48.146;17.098;2023-03-18T07:12:13;11.00;;;6.60;;
42196;SDS011;27866;48.146;17.098;2023-03-18T07:16:27;11.55;;;6.28;;
42196;SDS011;27866;48.146;17.098;2023-03-18T07:20:41;12.00;;;5.53;;
42196;SDS011;27866;48.146;17.098;2023-03-18T07:24:52;10.93;;;5.53;;
42196;SDS011;27866;48.146;17.098;2023-03-18T07:29:04;12.40;;;6.32;;
42196;SDS011;27866;48.146;17.098;2023-03-18T07:33:16;10.93;;;5.72;;
42196;SDS011;27866;48.146;17.098;2023-03-18T07:37:27;11.02;;;5.40;;
42196;SDS011;27866;48.146;17.098;2023-03-18T07:41:38;11.30;;;5.30;;
42196;SDS011;27866;48.146;17.098;2023-03-18T07:45:50;10.57;;;5.72;;
42196;SDS011;27866;48.146;17.098;2023-03-18T07:50:01;12.80;;;5.93;;
42196;SDS011;27866;48.146;17.098;2023-03-18T07:54:13;11.98;;;5.70;;
42196;SDS011;27866;48.146;17.098;2023-03-18T07:58:24;8.85;;;5.57;;
42196;SDS011;27866;48.146;17.098;2023-03-18T08:02:36;11.45;;;5.43;;
42196;SDS011;27866;48.146;17.098;2023-03-18T08:06:48;10.02;;;5.40;;
42196;SDS011;27866;48.146;17.098;2023-03-18T08:10:59;11.27;;;5.70;;
42196;SDS011;27866;48.146;17.098;2023-03-18T08:15:11;9.82;;;5.30;;
42196;SDS011;27866;48.146;17.098;2023-03-18T08:19:23;13.20;;;5.65;;
42196;SDS011;27866;48.146;17.098;2023-03-18T08:23:34;8.02;;;5.10;;
42196;SDS011;27866;48.146;17.098;2023-03-18T08:27:46;9.13;;;5.65;;
42196;SDS011;27866;48.146;17.098;2023-03-18T08:31:57;10.73;;;5.32;;
42196;SDS011;27866;48.146;17.098;2023-03-18T08:36:09;9.02;;;5.35;;
42196;SDS011;27866;48.146;17.098;2023-03-18T08:40:21;8.48;;;4.95;;
42196;SDS011;27866;48.146;17.098;2023-03-18T08:44:32;9.63;;;4.95;;
42196;SDS011;27866;48.146;17.098;2023-03-18T08:48:43;15.60;;;5.78;;
42196;SDS011;27866;48.146;17.098;2023-03-18T08:52:56;8.50;;;5.47;;
42196;SDS011;27866;48.146;17.098;2023-03-18T08:57:09;9.45;;;4.88;;
42196;SDS011;27866;48.146;17.098;2023-03-18T09:01:21;8.27;;;5.18;;
42196;SDS011;27866;48.146;17.098;2023-03-18T09:05:33;10.02;;;5.53;;
42196;SDS011;27866;48.146;17.098;2023-03-18T09:09:44;9.25;;;5.25;;
42196;SDS011;27866;48.146;17.098;2023-03-18T09:13:55;6.35;;;4.47;;
42196;SDS011;27866;48.146;17.098;2023-03-18T09:18:07;13.10;;;5.50;;
42196;SDS011;27866;48.146;17.098;2023-03-18T09:22:18;8.48;;;4.60;;
42196;SDS011;27866;48.146;17.098;2023-03-18T09:26:29;8.20;;;4.40;;
42196;SDS011;27866;48.146;17.098;2023-03-18T09:30:41;11.13;;;4.57;;
42196;SDS011;27866;48.146;17.098;2023-03-18T09:34:52;7.03;;;4.13;;
42196;SDS011;27866;48.146;17.098;2023-03-18T09:39:04;8.55;;;4.20;;
42196;SDS011;27866;48.146;17.098;2023-03-18T09:47:58;9.13;;;4.40;;
42196;SDS011;27866;48.146;17.098;2023-03-18T09:52:45;7.93;;;4.55;;
42196;SDS011;27866;48.146;17.098;2023-03-18T09:57:20;7.38;;;4.45;;
42196;SDS011;27866;48.146;17.098;2023-03-18T10:01:43;8.65;;;4.55;;
42196;SDS011;27866;48.146;17.098;2023-03-18T10:10:37;7.18;;;4.28;;
42196;SDS011;27866;48.146;17.098;2023-03-18T10:19:45;6.25;;;4.18;;
42196;SDS011;27866;48.146;17.098;2023-03-18T10:42:33;6.65;;;4.00;;
42196;SDS011;27866;48.146;17.098;2023-03-18T10:46:47;6.65;;;3.90;;
42196;SDS011;27866;48.146;17.098;2023-03-18T10:51:30;6.53;;;4.65;;
42196;SDS011;27866;48.146;17.098;2023-03-18T10:56:29;6.80;;;4.25;;
42196;SDS011;27866;48.146;17.098;2023-03-18T11:00:32;5.53;;;4.28;;
42196;SDS011;27866;48.146;17.098;2023-03-18T11:04:45;5.38;;;4.10;;
42196;SDS011;27866;48.146;17.098;2023-03-18T11:09:11;5.97;;;4.13;;
42196;SDS011;27866;48.146;17.098;2023-03-18T11:13:26;7.07;;;4.28;;
42196;SDS011;27866;48.146;17.098;2023-03-18T11:17:38;7.60;;;4.43;;
42196;SDS011;27866;48.146;17.098;2023-03-18T11:21:57;6.65;;;3.95;;
42196;SDS011;27866;48.146;17.098;2023-03-18T11:26:23;6.75;;;4.78;;
42196;SDS011;27866;48.146;17.098;2023-03-18T11:30:46;8.20;;;4.35;;
42196;SDS011;27866;48.146;17.098;2023-03-18T11:35:03;6.85;;;4.60;;
42196;SDS011;27866;48.146;17.098;2023-03-18T11:39:16;6.53;;;4.70;;
42196;SDS011;27866;48.146;17.098;2023-03-18T11:43:28;8.97;;;5.00;;
42196;SDS011;27866;48.146;17.098;2023-03-18T11:47:40;6.18;;;4.53;;
42196;SDS011;27866;48.146;17.098;2023-03-18T12:01:12;6.93;;;5.13;;
42196;SDS011;27866;48.146;17.098;2023-03-18T12:32:48;10.02;;;4.22;;
42196;SDS011;27866;48.146;17.098;2023-03-18T12:37:26;5.68;;;4.00;;
42196;SDS011;27866;48.146;17.098;2023-03-18T12:46:34;6.22;;;3.83;;
42196;SDS011;27866;48.146;17.098;2023-03-18T12:51:15;5.18;;;3.58;;
42196;SDS011;27866;48.146;17.098;2023-03-18T12:55:48;4.00;;;3.10;;
42196;SDS011;27866;48.146;17.098;2023-03-18T13:00:28;5.13;;;3.53;;
42196;SDS011;27866;48.146;17.098;2023-03-18T13:04:52;5.13;;;3.30;;
42196;SDS011;27866;48.146;17.098;2023-03-18T13:13:48;5.03;;;3.42;;
42196;SDS011;27866;48.146;17.098;2023-03-18T13:18:11;14.35;;;4.38;;
42196;SDS011;27866;48.146;17.098;2023-03-18T13:22:48;12.38;;;3.83;;
42196;SDS011;27866;48.146;17.098;2023-03-18T13:27:29;4.43;;;3.40;;
42196;SDS011;27866;48.146;17.098;2023-03-18T13:45:57;6.63;;;3.60;;
42196;SDS011;27866;48.146;17.098;2023-03-18T13:54:35;6.88;;;3.67;;
42196;SDS011;27866;48.146;17.098;2023-03-18T13:58:50;9.77;;;4.07;;
42196;SDS011;27866;48.146;17.098;2023-03-18T14:07:26;6.68;;;3.60;;
42196;SDS011;27866;48.146;17.098;2023-03-18T14:11:45;5.10;;;3.90;;
42196;SDS011;27866;48.146;17.098;2023-03-18T14:15:59;4.97;;;3.75;;
42196;SDS011;27866;48.146;17.098;2023-03-18T14:20:21;8.35;;;4.10;;
42196;SDS011;27866;48.146;17.098;2023-03-18T14:24:36;6.88;;;3.90;;
42196;SDS011;27866;48.146;17.098;2023-03-18T14:28:52;5.40;;;4.45;;
42196;SDS011;27866;48.146;17.098;2023-03-18T14:37:30;8.38;;;4.45;;
42196;SDS011;27866;48.146;17.098;2023-03-18T14:41:43;8.68;;;4.53;;
42196;SDS011;27866;48.146;17.098;2023-03-18T14:46:08;8.07;;;3.85;;
42196;SDS011;27866;48.146;17.098;2023-03-18T14:55:18;5.53;;;4.03;;
42196;SDS011;27866;48.146;17.098;2023-03-18T14:59:35;8.32;;;4.03;;
42196;SDS011;27866;48.146;17.098;2023-03-18T15:03:47;5.28;;;4.20;;
42196;SDS011;27866;48.146;17.098;2023-03-18T15:08:00;6.30;;;4.20;;
42196;SDS011;27866;48.146;17.098;2023-03-18T15:12:15;9.18;;;4.85;;
42196;SDS011;27866;48.146;17.098;2023-03-18T15:16:29;4.82;;;3.70;;
42196;SDS011;27866;48.146;17.098;2023-03-18T15:20:44;8.63;;;3.92;;
42196;SDS011;27866;48.146;17.098;2023-03-18T15:25:02;5.07;;;3.40;;
42196;SDS011;27866;48.146;17.098;2023-03-18T15:29:22;5.35;;;3.58;;
42196;SDS011;27866;48.146;17.098;2023-03-18T15:33:42;5.55;;;3.30;;
42196;SDS011;27866;48.146;17.098;2023-03-18T15:42:23;5.88;;;3.33;;
42196;SDS011;27866;48.146;17.098;2023-03-18T15:46:37;5.53;;;3.40;;
42196;SDS011;27866;48.146;17.098;2023-03-18T15:50:59;5.80;;;3.30;;
42196;SDS011;27866;48.146;17.098;2023-03-18T15:55:31;4.85;;;3.15;;
42196;SDS011;27866;48.146;17.098;2023-03-18T16:00:05;9.68;;;3.50;;
42196;SDS011;27866;48.146;17.098;2023-03-18T16:04:23;5.50;;;2.95;;
42196;SDS011;27866;48.146;17.098;2023-03-18T16:08:38;6.88;;;3.35;;
42196;SDS011;27866;48.146;17.098;2023-03-18T16:12:54;10.63;;;3.90;;
42196;SDS011;27866;48.146;17.098;2023-03-18T16:17:11;8.95;;;4.03;;
42196;SDS011;27866;48.146;17.098;2023-03-18T16:21:24;7.20;;;3.47;;
42196;SDS011;27866;48.146;17.098;2023-03-18T16:25:36;9.10;;;3.60;;
42196;SDS011;27866;48.146;17.098;2023-03-18T16:29:48;11.55;;;4.45;;
42196;SDS011;27866;48.146;17.098;2023-03-18T16:33:59;6.10;;;3.45;;
42196;SDS011;27866;48.146;17.098;2023-03-18T16:38:15;6.00;;;3.50;;
42196;SDS011;27866;48.146;17.098;2023-03-18T16:42:27;5.15;;;3.50;;
42196;SDS011;27866;48.146;17.098;2023-03-18T16:46:38;10.43;;;3.72;;
42196;SDS011;27866;48.146;17.098;2023-03-18T16:50:53;6.60;;;3.90;;
42196;SDS011;27866;48.146;17.098;2023-03-18T16:55:05;8.30;;;3.40;;
42196;SDS011;27866;48.146;17.098;2023-03-18T16:59:21;6.55;;;3.33;;
42196;SDS011;27866;48.146;17.098;2023-03-18T17:03:34;12.57;;;3.50;;
42196;SDS011;27866;48.146;17.098;2023-03-18T17:07:47;6.03;;;3.08;;
42196;SDS011;27866;48.146;17.098;2023-03-18T17:12:00;8.20;;;3.47;;
42196;SDS011;27866;48.146;17.098;2023-03-18T17:16:16;13.68;;;4.43;;
42196;SDS011;27866;48.146;17.098;2023-03-18T17:20:30;8.68;;;3.72;;
42196;SDS011;27866;48.146;17.098;2023-03-18T17:24:41;6.10;;;3.50;;
42196;SDS011;27866;48.146;17.098;2023-03-18T17:28:53;10.50;;;3.25;;
42196;SDS011;27866;48.146;17.098;2023-03-18T17:33:16;11.43;;;3.90;;
42196;SDS011;27866;48.146;17.098;2023-03-18T17:37:36;7.13;;;3.92;;
42196;SDS011;27866;48.146;17.098;2023-03-18T17:41:47;9.15;;;4.28;;
42196;SDS011;27866;48.146;17.098;2023-03-18T17:45:59;11.23;;;5.30;;
42196;SDS011;27866;48.146;17.098;2023-03-18T17:50:13;10.43;;;4.25;;
42196;SDS011;27866;48.146;17.098;2023-03-18T17:54:26;8.65;;;3.67;;
42196;SDS011;27866;48.146;17.098;2023-03-18T17:58:46;6.85;;;3.90;;
42196;SDS011;27866;48.146;17.098;2023-03-18T18:03:01;9.70;;;4.95;;
42196;SDS011;27866;48.146;17.098;2023-03-18T18:07:16;10.88;;;5.35;;
42196;SDS011;27866;48.146;17.098;2023-03-18T18:11:34;12.02;;;5.85;;
42196;SDS011;27866;48.146;17.098;2023-03-18T18:15:49;8.55;;;5.10;;
42196;SDS011;27866;48.146;17.098;2023-03-18T18:20:00;11.73;;;5.53;;
42196;SDS011;27866;48.146;17.098;2023-03-18T18:28:40;14.60;;;5.70;;
42196;SDS011;27866;48.146;17.098;2023-03-18T18:32:54;13.93;;;5.90;;
42196;SDS011;27866;48.146;17.098;2023-03-18T18:37:05;9.70;;;5.72;;
42196;SDS011;27866;48.146;17.098;2023-03-18T18:41:17;10.93;;;6.22;;
42196;SDS011;27866;48.146;17.098;2023-03-18T18:45:29;9.23;;;5.68;;
42196;SDS011;27866;48.146;17.098;2023-03-18T18:49:43;10.27;;;6.35;;
42196;SDS011;27866;48.146;17.098;2023-03-18T18:53:56;13.20;;;6.28;;
42196;SDS011;27866;48.146;17.098;2023-03-18T18:58:12;12.23;;;6.75;;
42196;SDS011;27866;48.146;17.098;2023-03-18T19:02:30;10.55;;;6.57;;
42196;SDS011;27866;48.146;17.098;2023-03-18T19:06:44;15.95;;;6.28;;
42196;SDS011;27866;48.146;17.098;2023-03-18T19:10:58;16.15;;;7.00;;
42196;SDS011;27866;48.146;17.098;2023-03-18T19:15:11;16.35;;;7.57;;
42196;SDS011;27866;48.146;17.098;2023-03-18T19:19:30;12.05;;;7.30;;
42196;SDS011;27866;48.146;17.098;2023-03-18T19:23:44;15.77;;;7.55;;
42196;SDS011;27866;48.146;17.098;2023-03-18T19:27:56;15.70;;;6.68;;
42196;SDS011;27866;48.146;17.098;2023-03-18T19:32:13;14.35;;;7.60;;
42196;SDS011;27866;48.146;17.098;2023-03-18T19:36:31;20.17;;;7.53;;
42196;SDS011;27866;48.146;17.098;2023-03-18T19:40:49;12.55;;;7.32;;
42196;SDS011;27866;48.146;17.098;2023-03-18T19:45:04;15.85;;;8.48;;
42196;SDS011;27866;48.146;17.098;2023-03-18T19:53:45;14.27;;;7.85;;
42196;SDS011;27866;48.146;17.098;2023-03-18T19:57:56;14.13;;;8.23;;
42196;SDS011;27866;48.146;17.098;2023-03-18T20:02:27;17.38;;;7.88;;
42196;SDS011;27866;48.146;17.098;2023-03-18T20:06:43;15.43;;;8.63;;
42196;SDS011;27866;48.146;17.098;2023-03-18T20:10:59;17.58;;;8.73;;
42196;SDS011;27866;48.146;17.098;2023-03-18T20:15:18;15.15;;;8.73;;
42196;SDS011;27866;48.146;17.098;2023-03-18T20:19:36;20.20;;;9.48;;
42196;SDS011;27866;48.146;17.098;2023-03-18T20:23:47;18.42;;;9.35;;
42196;SDS011;27866;48.146;17.098;2023-03-18T20:28:00;18.20;;;10.07;;
42196;SDS011;27866;48.146;17.098;2023-03-18T20:32:14;17.17;;;9.73;;
42196;SDS011;27866;48.146;17.098;2023-03-18T20:36:25;17.00;;;9.00;;
42196;SDS011;27866;48.146;17.098;2023-03-18T20:40:37;17.80;;;9.93;;
42196;SDS011;27866;48.146;17.098;2023-03-18T20:44:48;16.70;;;10.07;;
42196;SDS011;27866;48.146;17.098;2023-03-18T20:48:59;18.13;;;9.93;;
42196;SDS011;27866;48.146;17.098;2023-03-18T20:53:26;20.92;;;11.43;;
42196;SDS011;27866;48.146;17.098;2023-03-18T20:57:38;22.50;;;10.23;;
42196;SDS011;27866;48.146;17.098;2023-03-18T21:01:49;20.65;;;10.10;;
42196;SDS011;27866;48.146;17.098;2023-03-18T21:06:01;16.25;;;10.00;;
42196;SDS011;27866;48.146;17.098;2023-03-18T21:10:14;19.15;;;9.95;;
42196;SDS011;27866;48.146;17.098;2023-03-18T21:14:29;17.38;;;9.85;;
42196;SDS011;27866;48.146;17.098;2023-03-18T21:18:41;23.67;;;10.77;;
42196;SDS011;27866;48.146;17.098;2023-03-18T21:22:55;20.05;;;11.18;;
42196;SDS011;27866;48.146;17.098;2023-03-18T21:27:10;20.10;;;11.52;;
42196;SDS011;27866;48.146;17.098;2023-03-18T21:31:33;20.25;;;11.18;;
42196;SDS011;27866;48.146;17.098;2023-03-18T21:35:44;22.35;;;12.20;;
42196;SDS011;27866;48.146;17.098;2023-03-18T21:39:55;20.35;;;11.18;;
42196;SDS011;27866;48.146;17.098;2023-03-18T21:44:09;23.10;;;11.82;;
42196;SDS011;27866;48.146;17.098;2023-03-18T21:48:20;23.10;;;11.18;;
42196;SDS011;27866;48.146;17.098;2023-03-18T21:52:33;24.38;;;10.60;;
42196;SDS011;27866;48.146;17.098;2023-03-18T21:56:49;22.25;;;10.20;;
42196;SDS011;27866;48.146;17.098;2023-03-18T22:01:00;19.15;;;10.40;;
42196;SDS011;27866;48.146;17.098;2023-03-18T22:05:21;21.58;;;10.15;;
42196;SDS011;27866;48.146;17.098;2023-03-18T22:09:33;22.75;;;10.88;;
42196;SDS011;27866;48.146;17.098;2023-03-18T22:13:45;17.92;;;10.18;;
42196;SDS011;27866;48.146;17.098;2023-03-18T22:17:57;19.73;;;9.80;;
42196;SDS011;27866;48.146;17.098;2023-03-18T22:22:11;18.08;;;9.85;;
42196;SDS011;27866;48.146;17.098;2023-03-18T22:26:26;18.30;;;9.45;;
42196;SDS011;27866;48.146;17.098;2023-03-18T22:30:37;15.93;;;9.23;;
42196;SDS011;27866;48.146;17.098;2023-03-18T22:34:51;15.05;;;9.00;;
42196;SDS011;27866;48.146;17.098;2023-03-18T22:39:03;16.33;;;9.02;;
42196;SDS011;27866;48.146;17.098;2023-03-18T22:43:28;21.40;;;9.23;;
42196;SDS011;27866;48.146;17.098;2023-03-18T22:47:43;15.02;;;9.32;;
42196;SDS011;27866;48.146;17.098;2023-03-18T22:51:55;17.05;;;9.63;;
42196;SDS011;27866;48.146;17.098;2023-03-18T22:56:09;18.27;;;9.70;;
42196;SDS011;27866;48.146;17.098;2023-03-18T23:00:29;17.27;;;9.40;;
42196;SDS011;27866;48.146;17.098;2023-03-18T23:04:50;13.95;;;8.70;;
42196;SDS011;27866;48.146;17.098;2023-03-18T23:09:04;18.00;;;8.47;;
42196;SDS011;27866;48.146;17.098;2023-03-18T23:17:46;18.20;;;8.82;;
42196;SDS011;27866;48.146;17.098;2023-03-18T23:21:58;13.98;;;8.85;;
42196;SDS011;27866;48.146;17.098;2023-03-18T23:26:10;16.13;;;9.10;;
42196;SDS011;27866;48.146;17.098;2023-03-18T23:30:22;18.80;;;9.25;;
42196;SDS011;27866;48.146;17.098;2023-03-18T23:34:33;16.42;;;8.50;;
42196;SDS011;27866;48.146;17.098;2023-03-18T23:38:44;16.13;;;9.13;;
42196;SDS011;27866;48.146;17.098;2023-03-18T23:42:56;18.25;;;9.50;;
42196;SDS011;27866;48.146;17.098;2023-03-18T23:47:07;18.50;;;9.07;;
42196;SDS011;27866;48.146;17.098;2023-03-18T23:51:20;15.70;;;9.18;;
42196;SDS011;27866;48.146;17.098;2023-03-18T23:55:31;16.40;;;9.32;;
42196;SDS011;27866;48.146;17.098;2023-03-18T23:59:43;18.75;;;10.20;;
